Time;durP1;ratioP1;P1;durP2;ratioP2;P2;SDS_P1;SDS_P2;PMS_P1;PMS_P2;Temp;Humidity;BMP_temperature;BMP_pressure;BME280_temperature;BME280_humidity;BME280_pressure;Samples;Min_cycle;Max_cycle;Signal;HPM_P1;HPM_P2
2022/03/07 00:02:02;;;;;;;0.10;0.10;;;;;;;;;;4960527;28;20049;-89
2022/03/07 00:04:28;;;;;;;0.10;0.10;;;;;;;;;;4960265;28;20042;-90
2022/03/07 00:06:54;;;;;;;1.35;0.43;;;;;;;;;;4960614;28;20125;-89
2022/03/07 00:09:20;;;;;;;0.10;0.10;;;;;;;;;;4992318;28;20046;-89
2022/03/07 00:11:46;;;;;;;0.10;0.10;;;;;;;;;;4976105;28;20042;-90
2022/03/07 00:14:12;;;;;;;0.10;0.10;;;;;;;;;;4976319;28;20084;-90
2022/03/07 00:16:38;;;;;;;0.10;0.10;;;;;;;;;;4960714;28;20082;-90
2022/03/07 00:19:04;;;;;;;0.10;0.10;;;;;;;;;;4960249;28;20034;-91
2022/03/07 00:21:30;;;;;;;0.10;0.10;;;;;;;;;;4960089;28;20092;-90
2022/03/07 00:23:56;;;;;;;0.10;0.10;;;;;;;;;;4960509;28;20045;-89
2022/03/07 00:26:22;;;;;;;0.10;0.10;;;;;;;;;;4960612;28;20047;-92
2022/03/07 00:28:48;;;;;;;0.10;0.10;;;;;;;;;;4960275;28;20042;-91
2022/03/07 00:31:14;;;;;;;0.10;0.10;;;;;;;;;;4992409;28;20049;-91
2022/03/07 00:33:41;;;;;;;0.10;0.10;;;;;;;;;;4993004;28;20038;-90
2022/03/07 00:36:07;;;;;;;0.10;0.10;;;;;;;;;;4976025;28;20077;-90
2022/03/07 00:38:33;;;;;;;0.10;0.10;;;;;;;;;;4979896;28;20034;-90
2022/03/07 00:40:59;;;;;;;0.10;0.10;;;;;;;;;;4980851;28;20101;-90
2022/03/07 00:43:25;;;;;;;0.10;0.10;;;;;;;;;;4997037;28;20121;-89
2022/03/07 00:45:51;;;;;;;0.10;0.10;;;;;;;;;;4995900;28;20558;-90
2022/03/07 00:48:17;;;;;;;0.10;0.10;;;;;;;;;;4980507;28;20050;-90
2022/03/07 00:50:46;;;;;;;0.10;0.10;;;;;;;;;;4964146;28;20486;-91
2022/03/07 00:53:15;;;;;;;0.10;0.10;;;;;;;;;;4980245;28;20057;-91
2022/03/07 00:55:41;;;;;;;0.10;0.10;;;;;;;;;;4963992;28;20386;-91
2022/03/07 00:58:07;;;;;;;0.10;0.10;;;;;;;;;;4980224;28;20042;-91
2022/03/07 01:00:36;;;;;;;0.10;0.10;;;;;;;;;;4979992;28;20147;-91
2022/03/07 01:03:02;;;;;;;0.10;0.10;;;;;;;;;;4963747;28;20046;-89
2022/03/07 01:05:28;;;;;;;0.10;0.10;;;;;;;;;;4979680;28;20042;-90
2022/03/07 01:07:54;;;;;;;0.10;0.10;;;;;;;;;;4979814;28;20046;-91
2022/03/07 01:10:20;;;;;;;0.10;0.10;;;;;;;;;;4980368;28;20138;-91
2022/03/07 01:12:46;;;;;;;0.10;0.10;;;;;;;;;;4964144;28;20485;-91
2022/03/07 01:15:14;;;;;;;0.10;0.10;;;;;;;;;;4962822;28;20113;-90
2022/03/07 01:17:40;;;;;;;0.10;0.10;;;;;;;;;;4963166;28;20046;-91
2022/03/07 01:20:06;;;;;;;0.10;0.10;;;;;;;;;;4996056;28;20121;-91
2022/03/07 01:22:32;;;;;;;0.10;0.10;;;;;;;;;;4979672;28;20489;-90
2022/03/07 01:24:58;;;;;;;0.10;0.10;;;;;;;;;;4963415;28;20057;-91
2022/03/07 01:27:24;;;;;;;0.10;0.10;;;;;;;;;;4995894;28;20478;-91
2022/03/07 01:29:50;;;;;;;0.10;0.10;;;;;;;;;;4979804;28;20035;-91
2022/03/07 01:32:16;;;;;;;0.10;0.10;;;;;;;;;;4963864;28;20046;-91
2022/03/07 01:34:42;;;;;;;0.10;0.10;;;;;;;;;;4979566;28;20038;-91
2022/03/07 01:37:08;;;;;;;0.10;0.10;;;;;;;;;;4963448;28;20038;-91
2022/03/07 01:39:34;;;;;;;0.10;0.10;;;;;;;;;;4995814;28;20437;-90
2022/03/07 01:42:00;;;;;;;0.10;0.10;;;;;;;;;;4979452;28;20034;-90
2022/03/07 01:44:29;;;;;;;0.10;0.10;;;;;;;;;;4963050;28;20038;-91
2022/03/07 01:46:55;;;;;;;0.10;0.10;;;;;;;;;;4963662;28;20480;-90
2022/03/07 01:49:21;;;;;;;0.10;0.10;;;;;;;;;;4962241;28;20050;-90
2022/03/07 01:51:47;;;;;;;0.10;0.10;;;;;;;;;;4979269;28;20042;-91
2022/03/07 01:54:14;;;;;;;0.10;0.10;;;;;;;;;;4979078;28;20052;-91
2022/03/07 01:56:42;;;;;;;0.30;0.30;;;;;;;;;;4978317;28;20110;-90
2022/03/07 01:59:11;;;;;;;0.10;0.10;;;;;;;;;;4963039;28;20042;-90
2022/03/07 02:01:40;;;;;;;0.10;0.10;;;;;;;;;;4995346;28;20047;-91
2022/03/07 02:04:06;;;;;;;0.10;0.10;;;;;;;;;;4979092;28;20042;-90
2022/03/07 02:06:32;;;;;;;0.10;0.10;;;;;;;;;;4962664;28;20192;-90
2022/03/07 02:08:58;;;;;;;0.10;0.10;;;;;;;;;;4962762;28;20046;-90
2022/03/07 02:11:24;;;;;;;0.10;0.10;;;;;;;;;;4978596;28;20044;-90
2022/03/07 02:13:51;;;;;;;0.10;0.10;;;;;;;;;;4978745;28;20049;-90
2022/03/07 02:16:17;;;;;;;0.10;0.10;;;;;;;;;;4978783;28;20046;-91
2022/03/07 02:18:43;;;;;;;0.10;0.10;;;;;;;;;;4994896;28;20035;-91
2022/03/07 02:21:10;;;;;;;0.10;0.10;;;;;;;;;;4978710;28;20038;-90
2022/03/07 02:23:36;;;;;;;0.10;0.10;;;;;;;;;;4962883;28;20441;-91
2022/03/07 02:26:12;;;;;;;0.10;0.10;;;;;;;;;;4962961;28;20079;-91
2022/03/07 02:28:41;;;;;;;0.10;0.10;;;;;;;;;;4978913;28;20050;-91
2022/03/07 02:31:07;;;;;;;0.10;0.10;;;;;;;;;;4979016;28;20052;-91
2022/03/07 02:33:33;;;;;;;0.10;0.10;;;;;;;;;;4994865;28;20482;-92
2022/03/07 02:35:59;;;;;;;0.10;0.10;;;;;;;;;;4978409;28;20038;-91
2022/03/07 02:38:25;;;;;;;0.10;0.10;;;;;;;;;;4978566;28;20042;-91
2022/03/07 02:40:51;;;;;;;0.10;0.10;;;;;;;;;;4978003;28;20455;-91
2022/03/07 02:43:17;;;;;;;0.10;0.10;;;;;;;;;;4962294;28;20038;-90
2022/03/07 02:45:43;;;;;;;0.10;0.10;;;;;;;;;;4962028;28;20094;-91
2022/03/07 02:48:09;;;;;;;0.10;0.10;;;;;;;;;;4994308;28;20075;-90
2022/03/07 02:50:37;;;;;;;0.10;0.10;;;;;;;;;;4962209;28;20125;-90
2022/03/07 02:53:03;;;;;;;0.10;0.10;;;;;;;;;;4978293;28;20121;-90
2022/03/07 02:55:29;;;;;;;0.10;0.10;;;;;;;;;;4977929;28;20038;-90
2022/03/07 02:57:55;;;;;;;0.10;0.10;;;;;;;;;;4961789;28;20462;-92
2022/03/07 03:00:21;;;;;;;0.10;0.10;;;;;;;;;;4978174;28;20078;-91
2022/03/07 03:02:47;;;;;;;0.10;0.10;;;;;;;;;;4978266;28;20092;-91
2022/03/07 03:05:13;;;;;;;0.10;0.10;;;;;;;;;;4978077;28;20042;-90
2022/03/07 03:07:39;;;;;;;0.10;0.10;;;;;;;;;;4977810;28;20100;-90
2022/03/07 03:10:05;;;;;;;0.10;0.10;;;;;;;;;;4977758;28;20049;-91
2022/03/07 03:12:31;;;;;;;0.10;0.10;;;;;;;;;;4977977;28;20445;-91
2022/03/07 03:14:57;;;;;;;0.13;0.13;;;;;;;;;;4977515;28;20037;-91
2022/03/07 03:17:24;;;;;;;0.10;0.10;;;;;;;;;;4993577;28;20386;-91
2022/03/07 03:19:50;;;;;;;0.10;0.10;;;;;;;;;;4961656;28;20065;-90
2022/03/07 03:22:19;;;;;;;0.10;0.10;;;;;;;;;;4977271;28;20518;-91
2022/03/07 03:24:45;;;;;;;0.15;0.15;;;;;;;;;;4962060;28;20098;-92
2022/03/07 03:27:11;;;;;;;0.10;0.10;;;;;;;;;;4977969;28;20189;-90
2022/03/07 03:29:37;;;;;;;0.10;0.10;;;;;;;;;;4961585;28;20042;-91
2022/03/07 03:32:03;;;;;;;0.10;0.10;;;;;;;;;;4977492;28;20042;-90
2022/03/07 03:34:29;;;;;;;0.10;0.10;;;;;;;;;;4993622;28;20038;-91
2022/03/07 03:36:55;;;;;;;0.10;0.10;;;;;;;;;;4977419;28;20098;-91
2022/03/07 03:39:21;;;;;;;0.10;0.10;;;;;;;;;;4961615;28;20042;-92
2022/03/07 03:41:48;;;;;;;1.35;0.43;;;;;;;;;;4977414;28;20049;-92
2022/03/07 03:44:14;;;;;;;0.10;0.10;;;;;;;;;;4977248;28;20038;-91
2022/03/07 03:46:41;;;;;;;0.10;0.10;;;;;;;;;;4976746;28;20054;-91
2022/03/07 03:49:06;;;;;;;0.10;0.10;;;;;;;;;;4993052;28;20057;-90
2022/03/07 03:51:34;;;;;;;0.10;0.10;;;;;;;;;;4977042;28;20038;-90
2022/03/07 03:54:00;;;;;;;0.10;0.10;;;;;;;;;;4961105;28;20074;-91
2022/03/07 03:56:26;;;;;;;0.10;0.10;;;;;;;;;;4976957;28;20049;-93
2022/03/07 03:58:54;;;;;;;0.10;0.10;;;;;;;;;;4977148;28;20401;-92
2022/03/07 04:01:20;;;;;;;0.10;0.10;;;;;;;;;;4976947;28;20046;-92
2022/03/07 04:03:45;;;;;;;0.30;0.30;;;;;;;;;;4993501;28;20049;-92
2022/03/07 04:06:11;;;;;;;0.10;0.10;;;;;;;;;;4961094;28;20065;-92
2022/03/07 04:08:53;;;;;;;0.10;0.10;;;;;;;;;;4961383;28;20104;-92
2022/03/07 04:11:20;;;;;;;0.10;0.10;;;;;;;;;;4977163;28;20046;-93
2022/03/07 04:13:47;;;;;;;0.10;0.10;;;;;;;;;;4976872;28;20092;-91
2022/03/07 04:16:14;;;;;;;0.10;0.10;;;;;;;;;;4960968;28;20054;-92
2022/03/07 04:18:40;;;;;;;0.10;0.10;;;;;;;;;;4961474;28;20148;-92
2022/03/07 04:21:06;;;;;;;0.10;0.10;;;;;;;;;;4960722;28;20129;-91
2022/03/07 04:23:33;;;;;;;0.10;0.10;;;;;;;;;;4993179;28;20039;-91
2022/03/07 04:25:59;;;;;;;0.10;0.10;;;;;;;;;;4960602;28;20042;-91
2022/03/07 04:28:26;;;;;;;0.10;0.10;;;;;;;;;;4992743;28;20045;-91
2022/03/07 04:30:52;;;;;;;0.10;0.10;;;;;;;;;;4960681;28;20069;-90
2022/03/07 04:33:18;;;;;;;0.10;0.10;;;;;;;;;;4976723;28;20069;-91
2022/03/07 04:35:45;;;;;;;0.10;0.10;;;;;;;;;;4976674;28;20035;-92
2022/03/07 04:38:11;;;;;;;0.10;0.10;;;;;;;;;;4993097;28;20482;-91
2022/03/07 04:40:37;;;;;;;0.10;0.10;;;;;;;;;;4960258;28;20049;-92
2022/03/07 04:43:03;;;;;;;0.10;0.10;;;;;;;;;;4960556;28;20497;-91
2022/03/07 04:45:29;;;;;;;0.10;0.10;;;;;;;;;;4992284;28;20394;-93
2022/03/07 04:47:55;;;;;;;0.10;0.10;;;;;;;;;;4960379;28;20054;-92
2022/03/07 04:50:21;;;;;;;0.10;0.10;;;;;;;;;;4976994;28;20045;-92
2022/03/07 04:52:47;;;;;;;0.10;0.10;;;;;;;;;;4960569;28;20100;-92
2022/03/07 04:55:13;;;;;;;0.10;0.10;;;;;;;;;;4976003;28;20045;-90
2022/03/07 04:57:39;;;;;;;0.10;0.10;;;;;;;;;;4976747;28;20054;-91
2022/03/07 05:00:09;;;;;;;0.10;0.10;;;;;;;;;;4976610;28;20038;-91
2022/03/07 05:02:35;;;;;;;0.10;0.10;;;;;;;;;;4976457;28;20089;-92
2022/03/07 05:05:01;;;;;;;0.10;0.10;;;;;;;;;;4960284;28;20038;-92
2022/03/07 05:07:27;;;;;;;0.10;0.10;;;;;;;;;;4976685;28;20049;-91
2022/03/07 05:09:52;;;;;;;0.10;0.10;;;;;;;;;;4959862;28;20039;-91
2022/03/07 05:12:18;;;;;;;0.10;0.10;;;;;;;;;;4976624;28;20042;-91
2022/03/07 05:14:44;;;;;;;0.10;0.10;;;;;;;;;;4976012;28;20094;-90
2022/03/07 05:17:10;;;;;;;0.13;0.13;;;;;;;;;;4975993;28;20049;-90
2022/03/07 05:19:37;;;;;;;0.10;0.10;;;;;;;;;;4960379;28;20040;-92
2022/03/07 05:22:03;;;;;;;0.10;0.10;;;;;;;;;;4992751;28;20050;-92
2022/03/07 05:24:29;;;;;;;0.10;0.10;;;;;;;;;;4961236;28;20096;-91
2022/03/07 05:26:56;;;;;;;0.10;0.10;;;;;;;;;;4979682;28;20046;-93
2022/03/07 05:29:22;;;;;;;0.10;0.10;;;;;;;;;;4996241;28;20046;-91
2022/03/07 05:31:48;;;;;;;0.10;0.10;;;;;;;;;;4979446;28;20101;-92
2022/03/07 05:34:14;;;;;;;0.10;0.10;;;;;;;;;;4963882;28;20081;-92
2022/03/07 05:36:40;;;;;;;0.10;0.10;;;;;;;;;;4963585;28;20038;-92
2022/03/07 05:39:06;;;;;;;0.10;0.10;;;;;;;;;;4979842;28;20050;-91
2022/03/07 05:41:32;;;;;;;0.10;0.10;;;;;;;;;;4963622;28;20449;-93
2022/03/07 05:43:58;;;;;;;0.10;0.10;;;;;;;;;;4996268;28;20038;-92
2022/03/07 05:46:24;;;;;;;0.10;0.10;;;;;;;;;;4979313;28;20517;-92
2022/03/07 05:48:50;;;;;;;0.10;0.10;;;;;;;;;;4995616;28;20494;-91
2022/03/07 05:51:22;;;;;;;0.10;0.10;;;;;;;;;;4963163;28;20046;-92
2022/03/07 05:53:48;;;;;;;0.10;0.10;;;;;;;;;;4979755;28;20053;-92
2022/03/07 05:56:14;;;;;;;0.10;0.10;;;;;;;;;;4962698;28;20046;-92
2022/03/07 05:58:40;;;;;;;0.10;0.10;;;;;;;;;;4963051;28;20042;-92
2022/03/07 06:01:06;;;;;;;0.20;0.20;;;;;;;;;;4979014;28;20042;-92
2022/03/07 06:03:32;;;;;;;0.10;0.10;;;;;;;;;;4979159;28;20038;-93
2022/03/07 06:05:57;;;;;;;0.10;0.10;;;;;;;;;;4962495;28;20080;-91
2022/03/07 06:08:23;;;;;;;0.10;0.10;;;;;;;;;;4978128;28;20092;-91
2022/03/07 06:10:49;;;;;;;0.10;0.10;;;;;;;;;;4962476;28;20105;-90
2022/03/07 06:13:15;;;;;;;0.10;0.10;;;;;;;;;;4962268;28;20125;-91
2022/03/07 06:15:43;;;;;;;0.10;0.10;;;;;;;;;;4978272;28;20046;-91
2022/03/07 06:18:09;;;;;;;0.10;0.10;;;;;;;;;;4962121;28;20126;-91
2022/03/07 06:20:35;;;;;;;0.10;0.10;;;;;;;;;;4961945;28;20034;-91
2022/03/07 06:23:01;;;;;;;0.10;0.10;;;;;;;;;;4978333;28;20038;-90
2022/03/07 06:25:30;;;;;;;0.10;0.10;;;;;;;;;;4978130;28;20157;-91
2022/03/07 06:27:56;;;;;;;0.10;0.10;;;;;;;;;;4978583;28;20711;-91
2022/03/07 06:30:22;;;;;;;0.10;0.10;;;;;;;;;;4962255;28;20210;-91
2022/03/07 06:32:48;;;;;;;0.10;0.10;;;;;;;;;;4994459;28;20134;-92
2022/03/07 06:35:14;;;;;;;0.10;0.10;;;;;;;;;;4961671;28;20057;-91
2022/03/07 06:37:51;;;;;;;0.10;0.10;;;;;;;;;;4962304;28;20166;-92
2022/03/07 06:40:20;;;;;;;0.10;0.10;;;;;;;;;;4978472;28;20096;-92
2022/03/07 06:42:48;;;;;;;0.10;0.10;;;;;;;;;;4962411;28;20061;-92
2022/03/07 06:45:16;;;;;;;0.10;0.10;;;;;;;;;;4961935;28;20035;-91
2022/03/07 06:47:43;;;;;;;0.10;0.10;;;;;;;;;;4977515;28;20065;-91
2022/03/07 06:50:09;;;;;;;0.20;0.20;;;;;;;;;;4961410;28;20081;-91
2022/03/07 06:52:35;;;;;;;0.10;0.10;;;;;;;;;;4961616;28;20049;-92
2022/03/07 06:55:04;;;;;;;0.10;0.10;;;;;;;;;;4978057;28;20043;-96
2022/03/07 06:57:30;;;;;;;0.10;0.10;;;;;;;;;;4979169;28;20486;-89
2022/03/07 06:59:56;;;;;;;0.10;0.10;;;;;;;;;;4961076;28;20205;-91
2022/03/07 07:02:22;;;;;;;0.10;0.10;;;;;;;;;;4976811;28;20113;-90
2022/03/07 07:04:48;;;;;;;0.10;0.10;;;;;;;;;;4960748;28;20042;-91
2022/03/07 07:07:16;;;;;;;0.10;0.10;;;;;;;;;;4977371;28;20153;-91
2022/03/07 07:09:42;;;;;;;0.10;0.10;;;;;;;;;;4961631;28;20046;-91
2022/03/07 07:12:08;;;;;;;0.17;0.13;;;;;;;;;;4977660;28;20088;-91
2022/03/07 07:14:34;;;;;;;0.10;0.10;;;;;;;;;;4961622;28;20049;-90
2022/03/07 07:17:00;;;;;;;0.10;0.10;;;;;;;;;;4976957;28;20038;-91
2022/03/07 07:19:26;;;;;;;0.47;0.15;;;;;;;;;;4977037;28;20525;-91
2022/03/07 07:21:52;;;;;;;0.10;0.10;;;;;;;;;;4960731;28;20116;-91
2022/03/07 07:24:18;;;;;;;0.10;0.10;;;;;;;;;;4977421;28;20179;-89
2022/03/07 07:26:44;;;;;;;0.10;0.10;;;;;;;;;;4976882;28;20082;-88
2022/03/07 07:29:10;;;;;;;0.10;0.10;;;;;;;;;;4977148;28;20049;-91
2022/03/07 07:31:36;;;;;;;0.10;0.10;;;;;;;;;;4992534;28;20513;-91
2022/03/07 07:34:02;;;;;;;0.22;0.22;;;;;;;;;;4960652;28;20052;-88
2022/03/07 07:36:28;;;;;;;0.28;0.10;;;;;;;;;;4960399;28;20042;-90
2022/03/07 07:38:55;;;;;;;0.10;0.10;;;;;;;;;;4976941;28;20050;-90
2022/03/07 07:41:21;;;;;;;0.25;0.25;;;;;;;;;;4976696;28;20046;-90
2022/03/07 07:43:49;;;;;;;0.10;0.10;;;;;;;;;;4960301;28;20091;-91
2022/03/07 07:46:15;;;;;;;0.10;0.10;;;;;;;;;;4976015;28;20093;-89
2022/03/07 07:48:41;;;;;;;0.40;0.40;;;;;;;;;;4976029;28;20043;-88
2022/03/07 07:51:07;;;;;;;0.20;0.20;;;;;;;;;;4960580;28;20046;-87
2022/03/07 07:53:33;;;;;;;0.10;0.10;;;;;;;;;;4991922;28;20486;-88
2022/03/07 07:56:01;;;;;;;0.10;0.10;;;;;;;;;;4992073;28;20046;-92
2022/03/07 07:58:27;;;;;;;0.10;0.10;;;;;;;;;;4974623;28;20053;-88
2022/03/07 08:00:53;;;;;;;0.10;0.10;;;;;;;;;;4989422;28;20397;-87
2022/03/07 08:03:19;;;;;;;0.10;0.10;;;;;;;;;;5011299;28;20038;-88
2022/03/07 08:05:48;;;;;;;0.10;0.10;;;;;;;;;;4995590;28;20045;-87
2022/03/07 08:08:14;;;;;;;0.10;0.10;;;;;;;;;;4975398;28;20034;-88
2022/03/07 08:10:40;;;;;;;0.10;0.10;;;;;;;;;;5008076;28;20042;-85
2022/03/07 08:13:06;;;;;;;0.10;0.10;;;;;;;;;;4997394;28;20072;-84
2022/03/07 08:15:32;;;;;;;0.10;0.10;;;;;;;;;;5011050;28;20489;-84
2022/03/07 08:17:58;;;;;;;0.10;0.10;;;;;;;;;;4994641;28;20402;-85
2022/03/07 08:20:24;;;;;;;0.10;0.10;;;;;;;;;;4978601;28;20155;-85
2022/03/07 08:22:50;;;;;;;0.10;0.10;;;;;;;;;;4994879;28;20513;-84
2022/03/07 08:25:16;;;;;;;0.10;0.10;;;;;;;;;;4994794;28;20080;-85
2022/03/07 08:27:42;;;;;;;0.10;0.10;;;;;;;;;;5010875;28;20042;-85
2022/03/07 08:30:09;;;;;;;0.20;0.20;;;;;;;;;;4978888;28;20045;-85
2022/03/07 08:32:35;;;;;;;0.10;0.10;;;;;;;;;;4994895;28;20548;-86
2022/03/07 08:35:01;;;;;;;0.10;0.10;;;;;;;;;;5010918;28;20125;-84
2022/03/07 08:37:28;;;;;;;0.10;0.10;;;;;;;;;;4994821;28;20625;-84
2022/03/07 08:39:53;;;;;;;0.10;0.10;;;;;;;;;;4991119;28;20046;-84
2022/03/07 08:42:19;;;;;;;0.10;0.10;;;;;;;;;;5007447;28;20044;-84
2022/03/07 08:44:46;;;;;;;0.10;0.10;;;;;;;;;;5007494;28;20097;-83
2022/03/07 08:47:12;;;;;;;0.20;0.20;;;;;;;;;;5003779;28;20062;-84
2022/03/07 08:49:38;;;;;;;0.20;0.20;;;;;;;;;;5010945;28;20126;-84
2022/03/07 08:52:04;;;;;;;0.10;0.10;;;;;;;;;;5010622;28;20046;-84
2022/03/07 08:54:30;;;;;;;0.10;0.10;;;;;;;;;;5011047;28;20041;-84
2022/03/07 08:56:56;;;;;;;0.10;0.10;;;;;;;;;;4994287;28;20056;-84
2022/03/07 08:59:24;;;;;;;0.10;0.10;;;;;;;;;;4980765;28;20436;-84
2022/03/07 09:01:50;;;;;;;0.10;0.10;;;;;;;;;;4982469;28;20465;-83
2022/03/07 09:04:16;;;;;;;0.13;0.13;;;;;;;;;;4998299;28;20045;-87
2022/03/07 09:06:43;;;;;;;0.13;0.13;;;;;;;;;;4998069;28;20074;-86
2022/03/07 09:09:09;;;;;;;0.10;0.10;;;;;;;;;;4998349;28;20071;-86
2022/03/07 09:11:35;;;;;;;0.10;0.10;;;;;;;;;;5013737;28;20137;-86
2022/03/07 09:14:01;;;;;;;0.20;0.20;;;;;;;;;;4997813;28;20355;-85
2022/03/07 09:16:27;;;;;;;0.10;0.10;;;;;;;;;;4997558;28;20100;-86
2022/03/07 09:18:53;;;;;;;0.65;0.30;;;;;;;;;;5014188;28;20037;-85
2022/03/07 09:21:19;;;;;;;0.10;0.10;;;;;;;;;;5014090;28;20038;-85
2022/03/07 09:23:46;;;;;;;0.10;0.10;;;;;;;;;;5013746;28;20038;-85
2022/03/07 09:26:13;;;;;;;0.10;0.10;;;;;;;;;;4997488;28;20049;-85
2022/03/07 09:28:39;;;;;;;0.10;0.10;;;;;;;;;;4997640;28;20042;-84
2022/03/07 09:31:06;;;;;;;0.10;0.10;;;;;;;;;;5013702;28;20401;-85
2022/03/07 09:33:32;;;;;;;0.10;0.10;;;;;;;;;;5013814;28;20085;-84
2022/03/07 09:35:58;;;;;;;0.10;0.10;;;;;;;;;;4997369;28;20084;-86
2022/03/07 09:38:24;;;;;;;0.10;0.10;;;;;;;;;;5013617;28;20042;-85
2022/03/07 09:40:51;;;;;;;0.10;0.10;;;;;;;;;;5013589;28;20088;-85
2022/03/07 09:43:17;;;;;;;0.10;0.10;;;;;;;;;;4997568;28;20370;-84
2022/03/07 09:45:43;;;;;;;0.10;0.10;;;;;;;;;;4980388;28;20490;-85
2022/03/07 09:48:10;;;;;;;0.10;0.10;;;;;;;;;;5013632;28;20129;-84
2022/03/07 09:50:36;;;;;;;0.10;0.10;;;;;;;;;;4997224;28;20489;-85
2022/03/07 09:53:02;;;;;;;0.10;0.10;;;;;;;;;;5013441;28;20038;-85
2022/03/07 09:55:29;;;;;;;0.10;0.10;;;;;;;;;;5013142;28;20141;-85
2022/03/07 09:57:55;;;;;;;0.28;0.15;;;;;;;;;;4980959;28;20069;-84
2022/03/07 10:00:21;;;;;;;0.10;0.10;;;;;;;;;;4980745;28;20056;-85
2022/03/07 10:02:53;;;;;;;0.10;0.10;;;;;;;;;;4996856;28;20405;-85
2022/03/07 10:05:19;;;;;;;0.10;0.10;;;;;;;;;;4996982;28;20045;-85
2022/03/07 10:07:45;;;;;;;0.10;0.10;;;;;;;;;;4996711;28;20042;-85
2022/03/07 10:10:11;;;;;;;0.10;0.10;;;;;;;;;;4996133;28;20041;-86
2022/03/07 10:12:44;;;;;;;0.10;0.10;;;;;;;;;;4980699;28;20048;-83
2022/03/07 10:15:11;;;;;;;0.10;0.10;;;;;;;;;;5012947;28;20046;-83
2022/03/07 10:17:39;;;;;;;0.10;0.10;;;;;;;;;;4996561;28;20052;-84
2022/03/07 10:20:06;;;;;;;0.10;0.10;;;;;;;;;;4996550;28;20541;-84
2022/03/07 10:22:31;;;;;;;0.10;0.10;;;;;;;;;;4996418;28;20042;-85
2022/03/07 10:24:58;;;;;;;0.10;0.10;;;;;;;;;;4996560;28;20060;-84
2022/03/07 10:27:31;;;;;;;0.10;0.10;;;;;;;;;;4980304;28;20048;-84
2022/03/07 10:29:57;;;;;;;0.10;0.10;;;;;;;;;;4993263;28;20513;-85
2022/03/07 10:32:23;;;;;;;0.10;0.10;;;;;;;;;;5009448;28;20084;-84
2022/03/07 10:34:49;;;;;;;0.10;0.10;;;;;;;;;;4992961;28;20112;-84
2022/03/07 10:37:15;;;;;;;0.10;0.10;;;;;;;;;;5009205;28;20046;-84
2022/03/07 10:39:48;;;;;;;0.10;0.10;;;;;;;;;;4993234;28;20034;-86
2022/03/07 10:42:17;;;;;;;0.10;0.10;;;;;;;;;;4992954;28;20553;-83
2022/03/07 10:44:43;;;;;;;0.10;0.10;;;;;;;;;;4992891;28;20046;-86
2022/03/07 10:47:09;;;;;;;0.10;0.10;;;;;;;;;;5012027;28;20057;-84
2022/03/07 10:49:35;;;;;;;0.10;0.10;;;;;;;;;;5012221;28;20458;-83
2022/03/07 10:52:05;;;;;;;0.20;0.20;;;;;;;;;;4996038;28;20045;-87
2022/03/07 10:54:35;;;;;;;0.40;0.40;;;;;;;;;;4995963;28;20048;-85
2022/03/07 10:57:02;;;;;;;0.10;0.10;;;;;;;;;;4995972;28;20096;-84
2022/03/07 10:59:29;;;;;;;0.10;0.10;;;;;;;;;;4995887;28;20099;-84
2022/03/07 11:02:03;;;;;;;2.10;0.30;;;;;;;;;;4996905;28;20076;-85
2022/03/07 11:04:29;;;;;;;0.10;0.10;;;;;;;;;;4999448;28;20107;-85
2022/03/07 11:06:56;;;;;;;0.10;0.10;;;;;;;;;;4998292;28;20045;-85
2022/03/07 11:09:21;;;;;;;0.10;0.10;;;;;;;;;;4996303;28;20042;-84
2022/03/07 11:11:47;;;;;;;0.13;0.13;;;;;;;;;;4995707;28;20121;-85
2022/03/07 11:14:14;;;;;;;0.35;0.20;;;;;;;;;;4995616;28;20041;-86
2022/03/07 11:16:40;;;;;;;0.15;0.15;;;;;;;;;;4995610;28;20132;-85
2022/03/07 11:19:07;;;;;;;0.10;0.10;;;;;;;;;;4979336;28;20040;-86
2022/03/07 11:21:32;;;;;;;0.20;0.20;;;;;;;;;;4979643;28;20038;-86
2022/03/07 11:23:59;;;;;;;0.10;0.10;;;;;;;;;;4995811;28;20044;-85
2022/03/07 11:26:26;;;;;;;0.10;0.10;;;;;;;;;;4995418;28;20497;-85
2022/03/07 11:28:52;;;;;;;0.10;0.10;;;;;;;;;;4995789;28;20505;-83
2022/03/07 11:31:26;;;;;;;0.10;0.10;;;;;;;;;;4995319;28;20049;-84
2022/03/07 11:33:52;;;;;;;0.10;0.10;;;;;;;;;;4995659;28;20076;-84
2022/03/07 11:36:19;;;;;;;0.10;0.10;;;;;;;;;;4995229;28;20096;-82
2022/03/07 11:38:52;;;;;;;0.10;0.10;;;;;;;;;;4995307;28;20041;-84
2022/03/07 11:41:22;;;;;;;0.10;0.10;;;;;;;;;;4995231;28;20393;-86
2022/03/07 11:43:49;;;;;;;0.10;0.10;;;;;;;;;;4995102;28;20120;-84
2022/03/07 11:46:22;;;;;;;0.10;0.10;;;;;;;;;;4994903;28;20050;-83
2022/03/07 11:48:48;;;;;;;0.10;0.10;;;;;;;;;;4994986;28;20552;-85
2022/03/07 11:51:21;;;;;;;0.10;0.10;;;;;;;;;;4995159;28;20125;-83
2022/03/07 11:53:47;;;;;;;0.20;0.20;;;;;;;;;;4974962;28;20092;-86
2022/03/07 11:56:20;;;;;;;0.10;0.10;;;;;;;;;;5011009;28;20042;-85
2022/03/07 11:58:50;;;;;;;0.10;0.10;;;;;;;;;;4995008;28;20083;-84
2022/03/07 12:01:17;;;;;;;0.10;0.10;;;;;;;;;;4995469;28;20116;-84
2022/03/07 12:03:43;;;;;;;0.10;0.10;;;;;;;;;;4983947;28;20446;-84
2022/03/07 12:06:10;;;;;;;0.20;0.20;;;;;;;;;;4959307;28;20046;-85
2022/03/07 12:08:44;;;;;;;0.10;0.10;;;;;;;;;;4975338;28;20049;-83
2022/03/07 12:11:10;;;;;;;0.10;0.10;;;;;;;;;;4975569;28;20481;-83
2022/03/07 12:13:45;;;;;;;0.10;0.10;;;;;;;;;;4991520;28;20173;-84
2022/03/07 12:16:12;;;;;;;0.10;0.10;;;;;;;;;;4975431;28;20406;-84
2022/03/07 12:18:38;;;;;;;0.10;0.10;;;;;;;;;;4975219;28;20046;-84
2022/03/07 12:21:04;;;;;;;0.10;0.10;;;;;;;;;;4959132;28;20129;-84
2022/03/07 12:23:34;;;;;;;0.10;0.10;;;;;;;;;;4991235;28;20039;-87
2022/03/07 12:26:01;;;;;;;0.10;0.10;;;;;;;;;;4991619;28;20046;-84
2022/03/07 12:28:34;;;;;;;0.10;0.10;;;;;;;;;;4975270;28;20560;-85
2022/03/07 12:31:00;;;;;;;0.10;0.10;;;;;;;;;;4991229;28;20038;-84
2022/03/07 12:33:26;;;;;;;0.30;0.30;;;;;;;;;;4976257;28;20049;-83
2022/03/07 12:35:59;;;;;;;0.10;0.10;;;;;;;;;;4979025;28;20054;-84
2022/03/07 12:38:25;;;;;;;0.10;0.10;;;;;;;;;;4979209;28;20046;-83
2022/03/07 12:40:51;;;;;;;0.10;0.10;;;;;;;;;;4979043;28;20047;-84
2022/03/07 12:43:16;;;;;;;0.10;0.10;;;;;;;;;;4979159;28;20100;-84
2022/03/07 12:45:46;;;;;;;0.10;0.10;;;;;;;;;;4994917;28;20038;-87
2022/03/07 12:48:12;;;;;;;0.10;0.10;;;;;;;;;;4962848;28;20077;-86
2022/03/07 12:50:38;;;;;;;0.15;0.15;;;;;;;;;;4979331;28;20042;-86
2022/03/07 12:53:04;;;;;;;0.10;0.10;;;;;;;;;;4978901;28;20125;-86
2022/03/07 12:55:30;;;;;;;0.10;0.10;;;;;;;;;;4962626;28;20042;-85
2022/03/07 12:57:57;;;;;;;0.10;0.10;;;;;;;;;;4978600;28;20049;-83
2022/03/07 13:00:23;;;;;;;0.10;0.10;;;;;;;;;;4978787;28;20086;-85
2022/03/07 13:02:54;;;;;;;0.10;0.10;;;;;;;;;;4978462;28;20038;-83
2022/03/07 13:05:21;;;;;;;0.10;0.10;;;;;;;;;;4979221;28;20047;-85
2022/03/07 13:07:54;;;;;;;0.10;0.10;;;;;;;;;;4962750;28;20054;-85
2022/03/07 13:10:22;;;;;;;0.25;0.10;;;;;;;;;;4978585;28;20046;-84
2022/03/07 13:12:48;;;;;;;0.10;0.10;;;;;;;;;;4978648;28;20042;-85
2022/03/07 13:15:14;;;;;;;0.10;0.10;;;;;;;;;;4978406;28;20137;-85
2022/03/07 13:17:40;;;;;;;0.10;0.10;;;;;;;;;;4978339;28;20042;-84
2022/03/07 13:20:10;;;;;;;0.10;0.10;;;;;;;;;;4994475;28;20078;-84
2022/03/07 13:22:36;;;;;;;0.50;0.50;;;;;;;;;;4978188;28;20125;-86
2022/03/07 13:25:04;;;;;;;0.17;0.17;;;;;;;;;;4962168;28;20117;-85
2022/03/07 13:27:30;;;;;;;0.10;0.10;;;;;;;;;;4994501;28;20128;-85
2022/03/07 13:30:09;;;;;;;0.10;0.10;;;;;;;;;;4994378;28;20089;-84
2022/03/07 13:32:40;;;;;;;0.40;0.40;;;;;;;;;;4962160;28;20046;-84
2022/03/07 13:35:07;;;;;;;0.10;0.10;;;;;;;;;;4978841;28;20060;-84
2022/03/07 13:37:40;;;;;;;0.10;0.10;;;;;;;;;;4994062;28;20039;-84
2022/03/07 13:40:10;;;;;;;0.10;0.10;;;;;;;;;;4961824;28;20069;-85
2022/03/07 13:42:39;;;;;;;0.17;0.17;;;;;;;;;;4977948;28;20093;-84
2022/03/07 13:45:06;;;;;;;0.10;0.10;;;;;;;;;;4976605;28;20049;-84
2022/03/07 13:47:32;;;;;;;0.10;0.10;;;;;;;;;;4977730;28;20453;-84
2022/03/07 13:50:11;;;;;;;0.10;0.10;;;;;;;;;;4977861;28;20070;-85
2022/03/07 13:52:38;;;;;;;0.10;0.10;;;;;;;;;;4977750;28;20042;-85
2022/03/07 13:55:06;;;;;;;0.10;0.10;;;;;;;;;;4977667;28;20042;-87
2022/03/07 13:57:42;;;;;;;0.10;0.10;;;;;;;;;;4977625;28;20046;-85
2022/03/07 14:00:09;;;;;;;0.10;0.10;;;;;;;;;;4977759;28;20103;-84
2022/03/07 14:02:41;;;;;;;0.10;0.10;;;;;;;;;;4977556;28;20497;-85
2022/03/07 14:05:08;;;;;;;0.10;0.10;;;;;;;;;;4982566;28;20042;-86
2022/03/07 14:07:34;;;;;;;0.17;0.17;;;;;;;;;;4997067;28;20041;-85
2022/03/07 14:10:00;;;;;;;0.20;0.20;;;;;;;;;;4980549;28;20507;-84
2022/03/07 14:12:27;;;;;;;0.10;0.10;;;;;;;;;;5013154;28;20041;-85
2022/03/07 14:14:57;;;;;;;0.10;0.10;;;;;;;;;;4997093;28;20388;-85
2022/03/07 14:17:23;;;;;;;0.10;0.10;;;;;;;;;;4980549;28;20038;-86
2022/03/07 14:19:49;;;;;;;0.10;0.10;;;;;;;;;;5013054;28;20099;-86
2022/03/07 14:22:19;;;;;;;0.10;0.10;;;;;;;;;;4980491;28;20169;-86
2022/03/07 14:24:46;;;;;;;0.10;0.10;;;;;;;;;;4981014;28;20049;-85
2022/03/07 14:27:11;;;;;;;0.10;0.10;;;;;;;;;;5012844;28;20041;-85
2022/03/07 14:29:38;;;;;;;0.10;0.10;;;;;;;;;;4996688;28;20038;-85
2022/03/07 14:32:05;;;;;;;0.13;0.13;;;;;;;;;;4991528;28;20069;-86
2022/03/07 14:34:31;;;;;;;0.10;0.10;;;;;;;;;;4960953;28;20077;-86
2022/03/07 14:36:57;;;;;;;0.10;0.10;;;;;;;;;;4961035;28;20132;-86
2022/03/07 14:39:23;;;;;;;0.13;0.13;;;;;;;;;;4976945;28;20494;-85
2022/03/07 14:41:49;;;;;;;0.20;0.20;;;;;;;;;;4976903;28;20043;-84